createdAt,value
2018-05-16T00:00:54.100Z,10.40
2018-05-16T00:03:22.392Z,10.40
2018-05-16T00:05:49.940Z,10.40
2018-05-16T00:08:18.248Z,10.00
2018-05-16T00:10:45.761Z,10.00
2018-05-16T00:13:14.037Z,9.60
2018-05-16T00:15:42.333Z,9.50
2018-05-16T00:18:10.605Z,9.30
2018-05-16T00:20:38.128Z,9.30
2018-05-16T00:23:05.664Z,9.30
2018-05-16T00:25:33.190Z,9.20
2018-05-16T00:28:00.700Z,9.10
2018-05-16T00:30:28.246Z,9.10
2018-05-16T00:32:55.781Z,9.00
2018-05-16T00:35:23.333Z,9.00
2018-05-16T00:37:50.857Z,8.90
2018-05-16T00:40:18.382Z,8.90
2018-05-16T00:42:45.915Z,8.90
2018-05-16T00:45:13.438Z,8.90
2018-05-16T00:47:41.750Z,8.80
2018-05-16T00:50:09.266Z,8.80
2018-05-16T00:52:37.572Z,8.80
2018-05-16T00:55:05.118Z,8.80
2018-05-16T00:57:33.426Z,8.80
2018-05-16T01:00:00.939Z,8.80
2018-05-16T01:02:28.475Z,8.80
2018-05-16T01:04:56.023Z,8.80
2018-05-16T01:07:23.550Z,8.80
2018-05-16T01:09:51.091Z,8.80
2018-05-16T01:12:19.392Z,8.90
2018-05-16T01:14:46.925Z,8.90
2018-05-16T01:17:15.203Z,8.90
2018-05-16T01:19:43.505Z,8.90
2018-05-16T01:22:11.029Z,8.90
2018-05-16T01:24:39.316Z,8.90
2018-05-16T01:27:06.866Z,8.90
2018-05-16T01:29:34.423Z,8.90
2018-05-16T01:32:02.726Z,8.90
2018-05-16T01:34:30.250Z,8.80
2018-05-16T01:36:58.566Z,8.80
2018-05-16T01:39:26.071Z,8.80
2018-05-16T01:41:53.629Z,8.80
2018-05-16T01:44:21.152Z,8.80
2018-05-16T01:46:48.712Z,8.80
2018-05-16T01:49:20.223Z,8.80
2018-05-16T01:51:48.528Z,8.80
2018-05-16T01:54:16.048Z,8.80
2018-05-16T01:56:43.566Z,8.80
2018-05-16T01:59:11.126Z,8.80
2018-05-16T02:01:38.661Z,8.80
2018-05-16T02:04:06.185Z,8.80
2018-05-16T02:06:33.727Z,8.80
2018-05-16T02:09:01.239Z,8.80
2018-05-16T02:11:28.753Z,8.80
2018-05-16T02:13:56.310Z,8.70
2018-05-16T02:16:23.815Z,8.80
2018-05-16T02:18:51.357Z,8.80
2018-05-16T02:21:18.910Z,8.80
2018-05-16T02:23:47.209Z,8.80
2018-05-16T02:26:14.779Z,8.80
2018-05-16T02:28:42.310Z,8.70
2018-05-16T02:31:10.637Z,8.80
2018-05-16T02:33:38.171Z,8.80
2018-05-16T02:36:05.702Z,8.80
2018-05-16T02:38:33.274Z,8.80
2018-05-16T02:41:00.793Z,8.80
2018-05-16T02:43:28.343Z,8.90
2018-05-16T02:45:55.899Z,8.90
2018-05-16T02:48:23.457Z,8.90
2018-05-16T02:50:51.736Z,9.00
2018-05-16T02:53:19.278Z,9.00
2018-05-16T02:55:46.807Z,9.00
2018-05-16T02:58:14.330Z,9.10
2018-05-16T03:00:41.866Z,9.10
2018-05-16T03:03:09.411Z,9.10
2018-05-16T03:05:36.954Z,9.10
2018-05-16T03:08:04.473Z,9.10
2018-05-16T03:10:32.010Z,9.20
2018-05-16T03:12:59.520Z,9.30
2018-05-16T03:15:27.045Z,9.30
2018-05-16T03:17:54.582Z,9.30
2018-05-16T03:20:22.097Z,9.30
2018-05-16T03:22:49.615Z,9.40
2018-05-16T03:25:17.151Z,9.40
2018-05-16T03:27:44.667Z,9.50
2018-05-16T03:30:12.225Z,9.60
2018-05-16T03:32:40.495Z,9.50
2018-05-16T03:35:08.789Z,9.50
2018-05-16T03:37:36.320Z,9.50
2018-05-16T03:40:03.862Z,9.50
2018-05-16T03:42:31.378Z,9.50
2018-05-16T03:44:58.947Z,9.60
2018-05-16T03:47:26.474Z,9.80
2018-05-16T03:49:53.999Z,9.90
2018-05-16T03:52:21.521Z,10.00
2018-05-16T03:54:49.056Z,10.00
2018-05-16T03:57:28.355Z,10.00
2018-05-16T04:00:07.748Z,10.20
2018-05-16T04:02:47.139Z,10.20
2018-05-16T04:05:14.650Z,10.20
2018-05-16T04:07:42.178Z,10.20
2018-05-16T04:10:09.714Z,10.20
2018-05-16T04:12:37.996Z,10.10
2018-05-16T04:15:06.303Z,10.10
2018-05-16T04:17:33.825Z,10.10
2018-05-16T04:20:01.337Z,10.00
2018-05-16T04:22:28.879Z,10.00
2018-05-16T04:24:56.393Z,10.00
2018-05-16T04:27:23.898Z,10.00
2018-05-16T04:29:51.427Z,9.90
2018-05-16T04:32:19.729Z,9.90
2018-05-16T04:34:47.255Z,9.80
2018-05-16T04:37:15.558Z,9.80
2018-05-16T04:39:43.073Z,9.80
2018-05-16T04:42:10.615Z,9.90
2018-05-16T04:44:38.889Z,9.90
2018-05-16T04:47:06.399Z,9.90
2018-05-16T04:49:34.698Z,9.80
2018-05-16T04:52:02.221Z,9.80
2018-05-16T04:54:29.786Z,9.80
2018-05-16T04:56:58.085Z,9.70
2018-05-16T04:59:25.612Z,9.70
2018-05-16T05:01:53.923Z,9.90
2018-05-16T05:04:21.447Z,9.80
2018-05-16T05:06:48.973Z,9.90
2018-05-16T05:09:16.509Z,9.90
2018-05-16T05:11:44.028Z,9.90
2018-05-16T05:14:12.337Z,9.90
2018-05-16T05:16:39.851Z,9.80
2018-05-16T05:19:07.364Z,9.80
2018-05-16T05:21:34.912Z,9.70
2018-05-16T05:24:02.484Z,9.60
2018-05-16T05:26:30.737Z,9.60
2018-05-16T05:28:58.286Z,9.60
2018-05-16T05:31:26.575Z,9.60
2018-05-16T05:33:54.116Z,9.60
2018-05-16T05:36:22.394Z,9.70
2018-05-16T05:38:50.675Z,9.70
2018-05-16T05:41:18.229Z,9.70
2018-05-16T05:43:46.557Z,9.90
2018-05-16T05:46:14.045Z,9.90
2018-05-16T05:48:41.590Z,9.90
2018-05-16T05:51:09.229Z,10.00
2018-05-16T05:53:36.744Z,10.00
2018-05-16T05:56:05.036Z,10.30
2018-05-16T05:58:33.314Z,10.30
2018-05-16T06:01:00.872Z,10.30
2018-05-16T06:03:29.149Z,10.30
2018-05-16T06:05:56.687Z,10.30
2018-05-16T06:08:24.990Z,10.30
2018-05-16T06:10:52.517Z,10.30
2018-05-16T06:13:20.836Z,10.20
2018-05-16T06:15:48.363Z,10.20
2018-05-16T06:18:15.911Z,10.30
2018-05-16T06:20:43.452Z,10.30
2018-05-16T06:23:10.960Z,10.30
2018-05-16T06:25:38.486Z,10.20
2018-05-16T06:28:06.044Z,10.20
2018-05-16T06:30:33.549Z,10.30
2018-05-16T06:33:01.085Z,10.30
2018-05-16T06:35:29.403Z,10.30
2018-05-16T06:37:56.922Z,10.30
2018-05-16T06:40:25.233Z,10.20
2018-05-16T06:42:52.744Z,10.20
2018-05-16T06:45:21.049Z,10.20
2018-05-16T06:47:48.574Z,10.10
2018-05-16T06:50:16.093Z,10.20
2018-05-16T06:52:43.635Z,10.20
2018-05-16T06:55:11.154Z,10.30
2018-05-16T06:57:39.432Z,10.20
2018-05-16T07:00:07.732Z,10.20
2018-05-16T07:02:36.027Z,10.20
2018-05-16T07:05:03.552Z,10.20
2018-05-16T07:07:31.857Z,10.30
2018-05-16T07:09:59.377Z,10.30
2018-05-16T07:12:27.656Z,10.30
2018-05-16T07:14:56.309Z,10.20
2018-05-16T07:17:23.819Z,10.20
2018-05-16T07:19:51.373Z,10.20
2018-05-16T07:22:18.902Z,10.20
2018-05-16T07:24:46.728Z,10.20
2018-05-16T07:27:14.268Z,10.10
2018-05-16T07:29:42.552Z,10.10
2018-05-16T07:32:10.074Z,10.00
2018-05-16T07:34:38.395Z,10.00
2018-05-16T07:37:06.830Z,9.90
2018-05-16T07:39:34.352Z,10.00
2018-05-16T07:42:01.903Z,10.00
2018-05-16T07:44:29.424Z,10.10
2018-05-16T07:46:57.792Z,10.30
2018-05-16T07:49:25.261Z,10.30
2018-05-16T07:51:52.785Z,10.30
2018-05-16T07:54:20.326Z,10.40
2018-05-16T07:56:48.627Z,10.70
2018-05-16T07:59:16.145Z,10.70
2018-05-16T08:01:43.696Z,10.70
2018-05-16T08:04:11.214Z,10.70
2018-05-16T08:06:38.768Z,10.70
2018-05-16T08:09:06.272Z,10.70
2018-05-16T08:11:33.784Z,10.70
2018-05-16T08:14:01.332Z,10.80
2018-05-16T08:16:28.875Z,10.80
2018-05-16T08:18:56.411Z,10.70
2018-05-16T08:21:23.911Z,10.70
2018-05-16T08:23:51.418Z,10.80
2018-05-16T08:26:18.945Z,10.80
2018-05-16T08:28:47.216Z,10.90
2018-05-16T08:31:14.830Z,10.80
2018-05-16T08:33:43.060Z,10.90
2018-05-16T08:36:11.327Z,10.90
2018-05-16T08:38:38.867Z,10.90
2018-05-16T08:41:06.381Z,10.90
2018-05-16T08:43:33.901Z,11.00
2018-05-16T08:46:01.437Z,11.00
2018-05-16T08:48:28.989Z,11.00
2018-05-16T08:50:56.527Z,11.10
2018-05-16T08:53:24.042Z,11.10
2018-05-16T08:55:52.353Z,11.10
2018-05-16T08:58:19.874Z,11.10
2018-05-16T09:00:47.388Z,11.10
2018-05-16T09:03:14.908Z,11.20
2018-05-16T09:05:43.200Z,11.30
2018-05-16T09:08:11.515Z,11.30
2018-05-16T09:10:39.045Z,11.30
2018-05-16T09:13:06.551Z,11.40
2018-05-16T09:15:34.094Z,11.50
2018-05-16T09:18:01.716Z,11.50
2018-05-16T09:20:29.269Z,11.60
2018-05-16T09:22:56.798Z,11.70
2018-05-16T09:25:24.333Z,11.80
2018-05-16T09:27:51.872Z,11.80
2018-05-16T09:30:19.398Z,11.80
2018-05-16T09:32:47.702Z,11.90
2018-05-16T09:35:15.243Z,11.90
2018-05-16T09:37:42.762Z,11.90
2018-05-16T09:40:10.298Z,11.90
2018-05-16T09:42:37.829Z,11.90
2018-05-16T09:45:05.337Z,12.00
2018-05-16T09:47:32.871Z,12.00
2018-05-16T09:50:00.376Z,12.00
2018-05-16T09:52:28.653Z,12.00
2018-05-16T09:54:56.961Z,12.00
2018-05-16T09:57:24.484Z,12.00
2018-05-16T09:59:52.788Z,12.00
2018-05-16T10:02:20.315Z,12.00
2018-05-16T10:04:48.606Z,12.00
2018-05-16T10:07:16.889Z,11.90
2018-05-16T10:09:44.558Z,11.90
2018-05-16T10:12:11.980Z,11.90
2018-05-16T10:14:39.511Z,12.00
2018-05-16T10:17:07.050Z,12.00
2018-05-16T10:19:35.351Z,12.00
2018-05-16T10:22:02.872Z,12.00
2018-05-16T10:24:30.407Z,12.00
2018-05-16T10:26:58.704Z,12.00
2018-05-16T10:29:26.217Z,12.00
2018-05-16T10:31:53.775Z,12.00
2018-05-16T10:34:21.301Z,12.00
2018-05-16T10:36:48.828Z,12.00
2018-05-16T10:39:17.133Z,12.00
2018-05-16T10:41:44.653Z,12.00
2018-05-16T10:44:12.926Z,12.10
2018-05-16T10:46:41.230Z,12.10
2018-05-16T10:49:08.758Z,12.10
2018-05-16T10:51:36.265Z,12.20
2018-05-16T10:54:03.830Z,12.20
2018-05-16T10:56:31.352Z,12.20
2018-05-16T10:58:59.646Z,12.20
2018-05-16T11:01:27.190Z,12.30
2018-05-16T11:03:55.464Z,12.30
2018-05-16T11:06:23.751Z,12.40
2018-05-16T11:08:51.272Z,12.30
2018-05-16T11:11:18.808Z,12.30
2018-05-16T11:13:46.337Z,12.30
2018-05-16T11:16:13.853Z,12.40
2018-05-16T11:18:41.356Z,12.40
2018-05-16T11:21:08.890Z,12.50
2018-05-16T11:23:37.157Z,12.50
2018-05-16T11:26:05.556Z,12.50
2018-05-16T11:28:33.113Z,12.60
2018-05-16T11:31:00.620Z,12.60
2018-05-16T11:33:28.166Z,12.70
2018-05-16T11:35:55.703Z,12.70
2018-05-16T11:38:23.203Z,12.60
2018-05-16T11:40:50.714Z,12.60
2018-05-16T11:43:18.253Z,12.60
2018-05-16T11:45:46.520Z,12.60
2018-05-16T11:48:14.821Z,12.60
2018-05-16T11:50:42.362Z,12.50
2018-05-16T11:53:10.669Z,12.50
2018-05-16T11:55:38.949Z,12.50
2018-05-16T11:58:06.480Z,12.50
2018-05-16T12:00:34.762Z,12.70
2018-05-16T12:03:03.041Z,12.70
2018-05-16T12:05:31.342Z,12.70
2018-05-16T12:07:58.876Z,12.60
2018-05-16T12:10:26.389Z,12.60
2018-05-16T12:12:53.945Z,12.50
2018-05-16T12:15:21.443Z,12.60
2018-05-16T12:17:49.165Z,12.50
2018-05-16T12:20:16.698Z,12.50
2018-05-16T12:22:44.203Z,12.50
2018-05-16T12:25:11.770Z,12.50
2018-05-16T12:27:39.286Z,12.50
2018-05-16T12:30:06.801Z,12.50
2018-05-16T12:32:35.139Z,12.50
2018-05-16T12:35:02.662Z,12.50
2018-05-16T12:37:30.172Z,12.50
2018-05-16T12:39:57.706Z,12.50
2018-05-16T12:42:25.216Z,12.50
2018-05-16T12:44:52.767Z,12.50
2018-05-16T12:47:21.049Z,12.50
2018-05-16T12:49:49.324Z,12.60
2018-05-16T12:52:16.886Z,12.60
2018-05-16T12:54:45.186Z,12.60
2018-05-16T12:57:12.716Z,12.60
2018-05-16T12:59:41.021Z,12.60
2018-05-16T13:02:08.537Z,12.70
2018-05-16T13:04:36.102Z,12.70
2018-05-16T13:07:03.722Z,12.70
2018-05-16T13:09:31.181Z,12.60
2018-05-16T13:11:58.711Z,12.60
2018-05-16T13:14:26.256Z,12.50
2018-05-16T13:16:54.557Z,12.50
2018-05-16T13:19:22.084Z,12.50
2018-05-16T13:21:50.390Z,12.50
2018-05-16T13:24:17.945Z,12.50
2018-05-16T13:26:45.477Z,12.50
2018-05-16T13:29:13.769Z,12.40
2018-05-16T13:31:41.312Z,12.40
2018-05-16T13:34:09.600Z,12.50
2018-05-16T13:36:37.907Z,12.40
2018-05-16T13:39:05.437Z,12.40
2018-05-16T13:41:32.962Z,12.40
2018-05-16T13:44:00.505Z,12.30
2018-05-16T13:46:28.046Z,12.30
2018-05-16T13:48:55.568Z,12.30
2018-05-16T13:51:23.853Z,12.30
2018-05-16T13:53:51.372Z,12.30
2018-05-16T13:56:18.897Z,12.30
2018-05-16T13:58:46.416Z,12.30
2018-05-16T14:01:14.755Z,12.20
2018-05-16T14:03:42.273Z,12.20
2018-05-16T14:06:09.807Z,12.20
2018-05-16T14:08:38.108Z,12.20
2018-05-16T14:11:05.617Z,12.20
2018-05-16T14:13:33.142Z,12.30
2018-05-16T14:16:00.676Z,12.20
2018-05-16T14:18:28.212Z,12.20
2018-05-16T14:20:56.516Z,12.00
2018-05-16T14:23:24.032Z,12.00
2018-05-16T14:25:51.588Z,12.00
2018-05-16T14:28:19.113Z,12.00
2018-05-16T14:30:46.632Z,12.10
2018-05-16T14:33:14.944Z,12.10
2018-05-16T14:35:42.470Z,12.10
2018-05-16T14:38:10.022Z,12.00
2018-05-16T14:40:38.309Z,11.90
2018-05-16T14:43:06.594Z,11.90
2018-05-16T14:45:34.158Z,11.90
2018-05-16T14:48:01.677Z,11.90
2018-05-16T14:50:29.209Z,11.80
2018-05-16T14:52:56.745Z,11.90
2018-05-16T14:55:25.047Z,12.10
2018-05-16T14:57:52.593Z,12.10
2018-05-16T15:00:20.112Z,12.00
2018-05-16T15:02:48.494Z,11.90
2018-05-16T15:05:15.956Z,11.80
2018-05-16T15:07:44.237Z,11.70
2018-05-16T15:10:11.748Z,11.70
2018-05-16T15:12:39.324Z,11.60
2018-05-16T15:15:06.841Z,11.60
2018-05-16T15:17:34.364Z,11.60
2018-05-16T15:20:02.723Z,11.70
2018-05-16T15:22:30.229Z,11.70
2018-05-16T15:24:57.774Z,11.70
2018-05-16T15:27:25.383Z,11.60
2018-05-16T15:29:52.855Z,11.50
2018-05-16T15:32:20.393Z,11.60
2018-05-16T15:34:47.932Z,11.60
2018-05-16T15:37:15.463Z,11.60
2018-05-16T15:39:42.976Z,11.60
2018-05-16T15:42:10.528Z,11.50
2018-05-16T15:44:38.049Z,11.50
2018-05-16T15:47:06.322Z,11.50
2018-05-16T15:49:33.858Z,11.50
2018-05-16T15:52:02.147Z,11.60
2018-05-16T15:54:30.449Z,11.60
2018-05-16T15:56:57.994Z,11.60
2018-05-16T15:59:25.557Z,11.60
2018-05-16T16:01:53.060Z,11.60
2018-05-16T16:04:20.609Z,11.70
2018-05-16T16:06:48.130Z,11.60
2018-05-16T16:09:15.646Z,11.60
2018-05-16T16:11:43.176Z,11.60
2018-05-16T16:14:10.721Z,11.60
2018-05-16T16:16:38.253Z,11.60
2018-05-16T16:19:05.773Z,11.60
2018-05-16T16:21:33.306Z,11.60
2018-05-16T16:24:00.856Z,11.60
2018-05-16T16:26:28.371Z,11.50
2018-05-16T16:28:56.672Z,11.50
2018-05-16T16:31:24.270Z,11.50
2018-05-16T16:33:52.485Z,11.30
2018-05-16T16:36:20.790Z,11.40
2018-05-16T16:38:48.319Z,11.40
2018-05-16T16:41:16.626Z,11.40
2018-05-16T16:43:44.143Z,11.40
2018-05-16T16:46:11.661Z,11.30
2018-05-16T16:48:39.190Z,11.30
2018-05-16T16:51:06.711Z,11.30
2018-05-16T16:53:34.250Z,11.40
2018-05-16T16:56:01.772Z,11.50
2018-05-16T16:58:29.322Z,11.60
2018-05-16T17:00:57.607Z,11.60
2018-05-16T17:03:25.161Z,11.60
2018-05-16T17:05:52.692Z,11.60
2018-05-16T17:08:20.230Z,11.60
2018-05-16T17:10:47.746Z,11.60
2018-05-16T17:13:15.311Z,11.60
2018-05-16T17:15:42.849Z,11.50
2018-05-16T17:18:11.141Z,11.40
2018-05-16T17:20:38.669Z,11.40
2018-05-16T17:23:06.193Z,11.40
2018-05-16T17:25:33.713Z,11.30
2018-05-16T17:28:01.265Z,11.30
2018-05-16T17:30:29.642Z,11.40
2018-05-16T17:32:57.121Z,11.40
2018-05-16T17:35:24.645Z,11.40
2018-05-16T17:37:52.945Z,11.40
2018-05-16T17:40:20.476Z,11.40
2018-05-16T17:42:48.783Z,11.40
2018-05-16T17:45:16.292Z,11.40
2018-05-16T17:47:43.853Z,11.40
2018-05-16T17:50:11.368Z,11.40
2018-05-16T17:52:38.896Z,11.50
2018-05-16T17:55:07.223Z,11.50
2018-05-16T17:57:34.736Z,11.50
2018-05-16T18:00:03.013Z,11.40
2018-05-16T18:02:31.316Z,11.30
2018-05-16T18:04:58.857Z,11.30
2018-05-16T18:07:27.132Z,11.40
2018-05-16T18:09:55.429Z,11.40
2018-05-16T18:12:22.945Z,11.40
2018-05-16T18:17:54.539Z,11.10
2018-05-16T18:20:22.872Z,11.10
2018-05-16T18:22:50.406Z,11.00
2018-05-16T18:25:17.920Z,11.10
2018-05-16T18:27:46.218Z,11.10
2018-05-16T18:30:13.756Z,11.00
2018-05-16T18:32:42.078Z,10.90
2018-05-16T18:35:09.592Z,10.90
2018-05-16T18:37:37.904Z,10.90
2018-05-16T18:40:05.454Z,10.90
2018-05-16T18:42:33.025Z,10.90
2018-05-16T18:45:01.268Z,11.00
2018-05-16T18:47:29.578Z,11.10
2018-05-16T18:49:57.112Z,11.00
2018-05-16T18:52:25.384Z,11.00
2018-05-16T18:54:53.697Z,10.90
2018-05-16T18:57:21.208Z,10.90
2018-05-16T18:59:48.734Z,10.90
2018-05-16T19:02:16.272Z,11.00
2018-05-16T19:04:43.795Z,11.00
2018-05-16T19:07:12.113Z,10.80
2018-05-16T19:09:39.635Z,10.80
2018-05-16T19:12:07.912Z,10.70
2018-05-16T19:14:36.243Z,10.60
2018-05-16T19:17:03.757Z,10.60
2018-05-16T19:19:31.281Z,10.60
2018-05-16T19:21:58.797Z,10.60
2018-05-16T19:24:26.348Z,10.60
2018-05-16T19:26:53.858Z,10.60
2018-05-16T19:29:21.367Z,10.60
2018-05-16T19:31:48.904Z,10.60
2018-05-16T19:34:17.221Z,10.50
2018-05-16T19:36:44.742Z,10.50
2018-05-16T19:39:12.299Z,10.50
2018-05-16T19:41:40.572Z,10.60
2018-05-16T19:44:08.859Z,10.60
2018-05-16T19:46:36.432Z,10.60
2018-05-16T19:49:03.944Z,10.60
2018-05-16T19:51:31.451Z,10.60
2018-05-16T19:53:58.983Z,10.50
2018-05-16T19:56:27.276Z,10.40
2018-05-16T19:58:54.779Z,10.40
2018-05-16T20:01:22.323Z,10.30
2018-05-16T20:03:49.842Z,10.30
2018-05-16T20:06:17.382Z,10.30
2018-05-16T20:08:44.894Z,10.30
2018-05-16T20:11:12.419Z,10.20
2018-05-16T20:13:40.708Z,10.10
2018-05-16T20:16:09.176Z,10.10
2018-05-16T20:18:37.686Z,10.10
2018-05-16T20:21:05.213Z,10.10
2018-05-16T20:23:33.505Z,10.10
2018-05-16T20:26:01.030Z,10.10
2018-05-16T20:28:28.689Z,10.10
2018-05-16T20:30:56.216Z,10.10
2018-05-16T20:33:23.749Z,10.10
2018-05-16T20:35:52.019Z,10.30
2018-05-16T20:38:19.534Z,10.30
2018-05-16T20:40:47.873Z,10.30
2018-05-16T20:43:15.406Z,10.20
2018-05-16T20:45:42.911Z,10.30
2018-05-16T20:48:10.436Z,10.30
2018-05-16T20:50:37.978Z,10.20
2018-05-16T20:53:05.515Z,10.20
2018-05-16T20:55:33.032Z,10.10
2018-05-16T20:58:00.539Z,10.00
2018-05-16T21:00:28.849Z,10.10
2018-05-16T21:02:56.369Z,10.10
2018-05-16T21:05:23.894Z,10.20
2018-05-16T21:07:51.445Z,10.20
2018-05-16T21:10:18.963Z,10.20
2018-05-16T21:12:47.249Z,10.10
2018-05-16T21:15:14.771Z,10.20
2018-05-16T21:17:42.300Z,10.10
2018-05-16T21:20:09.841Z,10.00
2018-05-16T21:22:37.372Z,10.00
2018-05-16T21:25:05.637Z,10.00
2018-05-16T21:27:33.945Z,10.00
2018-05-16T21:30:01.473Z,10.00
2018-05-16T21:32:29.766Z,10.00
2018-05-16T21:34:57.306Z,10.00
2018-05-16T21:37:25.594Z,10.00
2018-05-16T21:39:53.908Z,10.00
2018-05-16T21:42:21.427Z,10.00
2018-05-16T21:44:49.719Z,10.10
2018-05-16T21:47:17.261Z,10.10
2018-05-16T21:49:45.526Z,10.20
2018-05-16T21:52:13.824Z,10.10
2018-05-16T21:54:42.134Z,10.10
2018-05-16T21:57:09.667Z,10.10
2018-05-16T21:59:37.184Z,10.20
2018-05-16T22:02:04.709Z,10.20
2018-05-16T22:04:32.209Z,10.20
2018-05-16T22:06:59.755Z,10.30
2018-05-16T22:09:27.281Z,10.30
2018-05-16T22:11:54.793Z,10.40
2018-05-16T22:14:22.329Z,10.40
2018-05-16T22:16:49.830Z,10.40
2018-05-16T22:19:18.124Z,10.40
2018-05-16T22:21:45.632Z,10.40
2018-05-16T22:24:13.159Z,10.50
2018-05-16T22:26:40.691Z,10.50
2018-05-16T22:29:08.219Z,10.60
2018-05-16T22:31:41.449Z,10.60
2018-05-16T22:34:14.708Z,10.50
2018-05-16T22:36:48.791Z,10.50
2018-05-16T22:39:21.954Z,10.50
2018-05-16T22:41:55.108Z,10.50
2018-05-16T22:44:29.895Z,10.60
2018-05-16T22:46:57.455Z,10.60
2018-05-16T22:49:24.975Z,10.70
2018-05-16T22:51:52.485Z,10.70
2018-05-16T22:54:20.005Z,10.70
2018-05-16T22:56:47.529Z,10.60
2018-05-16T22:59:15.888Z,10.40
2018-05-16T23:01:43.371Z,10.40
2018-05-16T23:04:11.673Z,10.40
2018-05-16T23:06:39.179Z,10.40
2018-05-16T23:09:06.693Z,10.40
2018-05-16T23:11:34.226Z,10.50
2018-05-16T23:14:02.515Z,10.50
2018-05-16T23:16:30.070Z,10.50
2018-05-16T23:18:57.575Z,10.50
2018-05-16T23:21:25.112Z,10.40
2018-05-16T23:23:52.652Z,10.30
2018-05-16T23:26:20.170Z,10.20
2018-05-16T23:28:47.686Z,10.10
2018-05-16T23:31:15.240Z,10.00
2018-05-16T23:33:42.750Z,10.00
2018-05-16T23:36:10.256Z,9.90
2018-05-16T23:38:37.775Z,9.90
2018-05-16T23:41:06.066Z,9.90
2018-05-16T23:43:34.340Z,10.00
2018-05-16T23:46:02.627Z,10.00
2018-05-16T23:48:30.144Z,10.00
2018-05-16T23:50:57.689Z,10.10
2018-05-16T23:53:25.403Z,10.10
2018-05-16T23:55:52.998Z,10.10
2018-05-16T23:58:21.254Z,9.90
